createdAt,value
2016-02-27T00:00:30.215Z,0
2016-02-27T00:01:30.672Z,0
2016-02-27T00:02:42.801Z,0
2016-02-27T00:03:30.051Z,0
2016-02-27T00:04:49.275Z,0
2016-02-27T00:05:30.666Z,0
2016-02-27T00:06:55.827Z,0
2016-02-27T00:07:30.155Z,0
2016-02-27T00:09:01.693Z,0
2016-02-27T00:09:42.960Z,0
2016-02-27T00:11:11.260Z,0
2016-02-27T00:11:55.168Z,0
2016-02-27T00:13:20.875Z,0
2016-02-27T00:13:55.253Z,0
2016-02-27T00:15:26.506Z,0
2016-02-27T00:15:58.258Z,0
2016-02-27T00:17:55.498Z,0
2016-02-27T00:18:08.092Z,0
2016-02-27T00:19:39.519Z,0
2016-02-27T00:20:14.378Z,0
2016-02-27T00:22:48.995Z,0
2016-02-27T00:23:23.339Z,0
2016-02-27T00:24:54.672Z,0
2016-02-27T00:25:32.938Z,0
2016-02-27T00:27:35.571Z,0
2016-02-27T00:28:07.383Z,0
2016-02-27T00:28:48.230Z,0
2016-02-27T00:30:57.891Z,0
2016-02-27T00:31:54.520Z,0
2016-02-27T00:32:29.739Z,0
2016-02-27T00:33:39.541Z,0
2016-02-27T00:34:49.106Z,0
2016-02-27T00:35:58.953Z,0
2016-02-27T00:36:52.268Z,0
2016-02-27T00:39:13.695Z,0
2016-02-27T00:41:16.513Z,0
2016-02-27T00:41:29.122Z,0
2016-02-27T00:43:31.752Z,0
2016-02-27T00:44:15.615Z,0
2016-02-27T00:44:44.398Z,0
2016-02-27T00:46:57.138Z,0
2016-02-27T00:47:45.015Z,0
2016-02-27T00:49:03.629Z,0
2016-02-27T00:49:44.615Z,0
2016-02-27T00:51:15.586Z,0
2016-02-27T00:51:44.480Z,0
2016-02-27T00:53:50.126Z,0
2016-02-27T00:54:21.954Z,0
2016-02-27T00:55:02.800Z,0
2016-02-27T00:56:02.756Z,0
2016-02-27T00:57:02.806Z,0
2016-02-27T00:58:09.074Z,0
2016-02-27T00:59:12.061Z,0
2016-02-27T01:00:22.002Z,0
2016-02-27T01:01:15.769Z,0
2016-02-27T01:03:19.010Z,0
2016-02-27T01:04:28.606Z,0
2016-02-27T01:05:21.999Z,0
2016-02-27T01:07:05.536Z,0
2016-02-27T01:07:37.399Z,0
2016-02-27T01:08:18.133Z,0
2016-02-27T01:10:16.575Z,0
2016-02-27T01:10:56.328Z,0
2016-02-27T01:11:40.237Z,0
2016-02-27T01:12:52.958Z,0
2016-02-27T01:13:40.242Z,0
2016-02-27T01:15:05.917Z,0
2016-02-27T01:16:15.498Z,0
2016-02-27T01:17:15.688Z,0
2016-02-27T01:18:30.909Z,0
2016-02-27T01:19:21.864Z,0
2016-02-27T01:20:34.024Z,0
2016-02-27T01:23:16.345Z,0
2016-02-27T01:24:35.613Z,0
2016-02-27T01:25:07.475Z,0
2016-02-27T01:27:57.077Z,0
2016-02-27T01:28:32.061Z,0
2016-02-27T01:29:25.797Z,0
2016-02-27T01:30:45.211Z,0
2016-02-27T01:31:51.353Z,0
2016-02-27T01:32:54.777Z,0
2016-02-27T01:36:16.911Z,0
2016-02-27T01:38:51.653Z,0
2016-02-27T01:39:25.888Z,0
2016-02-27T01:40:57.846Z,0
2016-02-27T01:41:45.536Z,0
2016-02-27T01:43:46.370Z,0
2016-02-27T01:43:58.963Z,0
2016-02-27T01:45:49.532Z,0
2016-02-27T01:46:14.891Z,0
2016-02-27T01:47:15.065Z,0
2016-02-27T01:48:21.146Z,0
2016-02-27T01:49:27.618Z,0
2016-02-27T01:50:27.870Z,0
2016-02-27T01:51:40.703Z,0
2016-02-27T01:52:27.672Z,0
2016-02-27T01:54:31.131Z,0
2016-02-27T01:55:40.840Z,0
2016-02-27T01:58:05.595Z,0
2016-02-27T01:58:39.926Z,0
2016-02-27T02:00:42.556Z,0
2016-02-27T02:01:33.791Z,0
2016-02-27T02:01:55.121Z,0
2016-02-27T02:03:57.767Z,0
2016-02-27T02:04:36.049Z,0
2016-02-27T02:05:10.395Z,0
2016-02-27T02:06:36.195Z,0
2016-02-27T02:07:45.935Z,0
2016-02-27T02:08:29.825Z,0
2016-02-27T02:09:55.502Z,0
2016-02-27T02:10:36.096Z,0
2016-02-27T02:12:01.148Z,0
2016-02-27T02:12:42.619Z,0
2016-02-27T02:13:29.854Z,0
2016-02-27T02:14:49.079Z,0
2016-02-27T02:15:29.969Z,0
2016-02-27T02:16:50.599Z,0
2016-02-27T02:17:36.193Z,0
2016-02-27T02:20:05.045Z,0
2016-02-27T02:21:08.156Z,0
2016-02-27T02:21:48.940Z,0
2016-02-27T02:23:20.272Z,0
2016-02-27T02:23:48.962Z,0
2016-02-27T02:25:58.717Z,0
2016-02-27T02:26:11.326Z,0
2016-02-27T02:28:14.145Z,0
2016-02-27T02:28:26.739Z,0
2016-02-27T02:29:26.756Z,0
2016-02-27T02:30:33.244Z,0
2016-02-27T02:31:33.043Z,0
2016-02-27T02:32:39.514Z,0
2016-02-27T02:33:39.580Z,0
2016-02-27T02:34:46.023Z,0
2016-02-27T02:35:30.054Z,0
2016-02-27T02:37:39.669Z,0
2016-02-27T02:39:05.346Z,0
2016-02-27T02:39:45.098Z,0
2016-02-27T02:41:46.230Z,0
2016-02-27T02:41:58.823Z,0
2016-02-27T02:42:58.872Z,0
2016-02-27T02:43:59.047Z,0
2016-02-27T02:44:59.065Z,0
2016-02-27T02:45:59.115Z,0
2016-02-27T02:47:05.132Z,0
2016-02-27T02:48:18.104Z,0
2016-02-27T02:49:18.091Z,0
2016-02-27T02:50:30.266Z,0
2016-02-27T02:51:18.160Z,0
2016-02-27T02:51:58.959Z,0
2016-02-27T02:53:55.168Z,0
2016-02-27T02:54:07.996Z,0
2016-02-27T02:55:07.811Z,0
2016-02-27T02:56:07.814Z,0
2016-02-27T02:57:14.081Z,0
2016-02-27T02:58:07.819Z,0
2016-02-27T02:59:07.868Z,0
2016-02-27T03:00:08.433Z,0
2016-02-27T03:01:07.859Z,0
2016-02-27T03:02:07.939Z,0
2016-02-27T03:03:08.114Z,0
2016-02-27T03:04:14.147Z,0
2016-02-27T03:05:08.134Z,0
2016-02-27T03:06:14.169Z,0
2016-02-27T03:07:08.171Z,0
2016-02-27T03:08:20.174Z,0
2016-02-27T03:09:20.677Z,0
2016-02-27T03:10:27.148Z,0
2016-02-27T03:11:08.432Z,0
2016-02-27T03:12:27.466Z,0
2016-02-27T03:13:09.610Z,0
2016-02-27T03:14:08.268Z,0
2016-02-27T03:15:11.099Z,0
2016-02-27T03:16:09.445Z,0
2016-02-27T03:17:14.386Z,0
2016-02-27T03:19:23.329Z,0
2016-02-27T03:20:23.346Z,0
2016-02-27T03:21:36.099Z,0
2016-02-27T03:22:23.384Z,0
2016-02-27T03:24:32.998Z,0
2016-02-27T03:25:26.860Z,0
2016-02-27T03:26:26.707Z,0
2016-02-27T03:27:26.662Z,0
2016-02-27T03:28:39.462Z,0
2016-02-27T03:29:33.199Z,0
2016-02-27T03:30:52.361Z,0
2016-02-27T03:31:39.470Z,0
2016-02-27T03:32:26.707Z,0
2016-02-27T03:34:23.712Z,0
2016-02-27T03:35:02.636Z,0
2016-02-27T03:37:12.205Z,0
2016-02-27T03:37:59.427Z,0
2016-02-27T03:39:00.851Z,0
2016-02-27T03:40:37.275Z,0
2016-02-27T03:41:02.606Z,0
2016-02-27T03:42:41.280Z,0
2016-02-27T03:43:50.849Z,0
2016-02-27T03:44:28.896Z,0
2016-02-27T03:45:03.524Z,0
2016-02-27T03:46:29.199Z,0
2016-02-27T03:47:04.872Z,0
2016-02-27T03:48:29.125Z,0
2016-02-27T03:49:16.222Z,0
2016-02-27T03:50:03.459Z,0
2016-02-27T03:51:23.054Z,0
2016-02-27T03:52:04.121Z,0
2016-02-27T03:53:29.201Z,0
2016-02-27T03:54:03.516Z,0
2016-02-27T03:56:06.162Z,0
2016-02-27T03:56:18.740Z,0
2016-02-27T03:57:18.774Z,0
2016-02-27T03:58:24.995Z,0
2016-02-27T03:59:19.576Z,0
2016-02-27T04:00:19.079Z,0
2016-02-27T04:01:19.410Z,0
2016-02-27T04:02:18.804Z,0
2016-02-27T04:03:18.837Z,0
2016-02-27T04:04:18.825Z,0
2016-02-27T04:05:25.092Z,0
2016-02-27T04:06:25.111Z,0
2016-02-27T04:07:31.582Z,0
2016-02-27T04:08:18.945Z,0
2016-02-27T04:09:38.089Z,0
2016-02-27T04:10:25.356Z,0
2016-02-27T04:11:44.594Z,0
2016-02-27T04:12:31.675Z,0
2016-02-27T04:13:44.583Z,0
2016-02-27T04:14:38.133Z,0
2016-02-27T04:15:50.450Z,0
2016-02-27T04:17:12.843Z,0
2016-02-27T04:17:34.390Z,0
2016-02-27T04:18:34.377Z,0
2016-02-27T04:19:42.209Z,0
2016-02-27T04:20:34.461Z,0
2016-02-27T04:21:34.371Z,0
2016-02-27T04:22:34.420Z,0
2016-02-27T04:23:34.407Z,0
2016-02-27T04:24:40.690Z,0
2016-02-27T04:25:35.866Z,0
2016-02-27T04:26:34.431Z,0
2016-02-27T04:27:47.171Z,0
2016-02-27T04:28:35.874Z,0
2016-02-27T04:29:34.470Z,0
2016-02-27T04:30:34.492Z,0
2016-02-27T04:31:40.841Z,0
2016-02-27T04:32:34.471Z,0
2016-02-27T04:33:47.388Z,0
2016-02-27T04:34:40.731Z,0
2016-02-27T04:35:53.695Z,0
2016-02-27T04:36:37.586Z,0
2016-02-27T04:37:56.691Z,0
2016-02-27T04:38:38.175Z,0
2016-02-27T04:41:18.456Z,0
2016-02-27T04:42:11.988Z,0
2016-02-27T04:42:52.771Z,0
2016-02-27T04:44:18.475Z,0
2016-02-27T04:45:24.134Z,0
2016-02-27T04:46:24.822Z,0
2016-02-27T04:48:05.717Z,0
2016-02-27T04:48:37.654Z,0
2016-02-27T04:50:08.955Z,0
2016-02-27T04:50:47.302Z,0
2016-02-27T04:51:47.304Z,0
2016-02-27T04:52:47.354Z,0
2016-02-27T04:53:53.668Z,0
2016-02-27T04:54:47.342Z,0
2016-02-27T04:55:48.751Z,0
2016-02-27T04:57:00.114Z,0
2016-02-27T04:58:00.084Z,0
2016-02-27T04:59:00.306Z,0
2016-02-27T05:00:00.121Z,0
2016-02-27T05:00:47.421Z,0
2016-02-27T05:01:47.409Z,0
2016-02-27T05:02:47.427Z,0
2016-02-27T05:03:48.945Z,0
2016-02-27T05:04:47.447Z,0
2016-02-27T05:05:47.497Z,0
2016-02-27T05:06:47.452Z,0
2016-02-27T05:07:47.502Z,0
2016-02-27T05:08:48.099Z,0
2016-02-27T05:10:00.211Z,0
2016-02-27T05:11:00.261Z,0
2016-02-27T05:13:22.797Z,0
2016-02-27T05:15:37.959Z,0
2016-02-27T05:16:37.977Z,0
2016-02-27T05:17:37.995Z,0
2016-02-27T05:19:47.751Z,0
2016-02-27T05:21:00.537Z,0
2016-02-27T05:22:00.571Z,0
2016-02-27T05:23:00.464Z,0
2016-02-27T05:24:13.092Z,0
2016-02-27T05:25:01.845Z,0
2016-02-27T05:26:19.598Z,0
2016-02-27T05:27:19.648Z,0
2016-02-27T05:29:41.278Z,0
2016-02-27T05:30:15.609Z,0
2016-02-27T05:32:18.458Z,0
2016-02-27T05:32:56.835Z,0
2016-02-27T05:33:31.194Z,0
2016-02-27T05:35:03.841Z,0
2016-02-27T05:35:42.075Z,0
2016-02-27T05:37:13.424Z,0
2016-02-27T05:37:51.646Z,0
2016-02-27T05:39:17.351Z,0
2016-02-27T05:40:26.885Z,0
2016-02-27T05:41:01.435Z,0
2016-02-27T05:42:01.266Z,0
2016-02-27T05:43:14.003Z,0
2016-02-27T05:44:01.427Z,0
2016-02-27T05:46:04.573Z,4
2016-02-27T05:47:17.154Z,0
2016-02-27T05:48:36.501Z,0
2016-02-27T05:49:48.987Z,4
2016-02-27T05:51:17.368Z,4
2016-02-27T05:52:39.527Z,4
2016-02-27T05:53:58.720Z,4
2016-02-27T05:55:08.285Z,8
2016-02-27T05:56:01.834Z,12
2016-02-27T05:56:42.615Z,12
2016-02-27T05:59:37.562Z,16
2016-02-27T05:59:52.455Z,16
2016-02-27T06:01:49.395Z,24
2016-02-27T06:02:01.976Z,24
2016-02-27T06:03:59.059Z,32
2016-02-27T06:05:09.250Z,40
2016-02-27T06:05:21.828Z,40
2016-02-27T06:06:21.846Z,48
2016-02-27T06:07:22.411Z,52
2016-02-27T06:08:34.616Z,64
2016-02-27T06:09:34.667Z,72
2016-02-27T06:11:38.078Z,92
2016-02-27T06:13:03.349Z,108
2016-02-27T06:14:03.493Z,120
2016-02-27T06:15:09.932Z,136
2016-02-27T06:16:09.966Z,148
2016-02-27T06:18:45.097Z,184
2016-02-27T06:19:00.459Z,196
2016-02-27T06:21:13.183Z,236
2016-02-27T06:22:00.482Z,256
2016-02-27T06:23:00.438Z,284
2016-02-27T06:24:02.315Z,316
2016-02-27T06:25:00.476Z,348
2016-02-27T06:26:00.650Z,384
2016-02-27T06:27:00.559Z,420
2016-02-27T06:28:00.546Z,460
2016-02-27T06:29:00.392Z,508
2016-02-27T06:30:00.614Z,552
2016-02-27T06:31:01.991Z,600
2016-02-27T06:32:00.541Z,648
2016-02-27T06:33:00.450Z,700
2016-02-27T06:34:00.656Z,752
2016-02-27T06:35:00.658Z,804
2016-02-27T06:36:00.708Z,860
2016-02-27T06:37:00.711Z,916
2016-02-27T06:38:13.385Z,980
2016-02-27T06:39:00.685Z,1024
2016-02-27T06:40:13.405Z,1096
2016-02-27T06:41:00.675Z,1144
2016-02-27T06:42:00.661Z,1200
2016-02-27T06:43:00.726Z,1268
2016-02-27T06:44:00.713Z,1336
2016-02-27T06:45:00.732Z,1404
2016-02-27T06:46:00.719Z,1476
2016-02-27T06:47:00.737Z,1548
2016-02-27T06:48:00.771Z,1624
2016-02-27T06:49:00.743Z,1696
2016-02-27T06:50:00.824Z,1768
2016-02-27T06:51:00.811Z,1844
2016-02-27T06:52:00.845Z,1916
2016-02-27T06:53:13.551Z,2004
2016-02-27T06:54:00.835Z,2060
2016-02-27T06:55:00.821Z,2132
2016-02-27T06:56:00.855Z,2204
2016-02-27T06:57:00.873Z,2284
2016-02-27T06:58:00.907Z,2364
2016-02-27T06:59:00.894Z,2452
2016-02-27T07:00:01.101Z,2564
2016-02-27T07:01:01.009Z,2700
2016-02-27T07:02:01.122Z,2840
2016-02-27T07:03:01.031Z,2988
2016-02-27T07:04:00.986Z,3264
2016-02-27T07:05:01.020Z,3608
2016-02-27T07:06:01.007Z,3776
2016-02-27T07:07:01.088Z,3872
2016-02-27T07:08:01.076Z,4204
2016-02-27T07:09:01.047Z,4456
2016-02-27T07:10:01.065Z,4392
2016-02-27T07:11:01.083Z,4480
2016-02-27T07:12:01.086Z,4740
2016-02-27T07:13:01.119Z,4904
2016-02-27T07:14:01.075Z,5100
2016-02-27T07:15:01.125Z,5152
2016-02-27T07:16:01.081Z,5060
2016-02-27T07:17:01.116Z,4916
2016-02-27T07:18:01.196Z,4860
2016-02-27T07:19:01.214Z,4720
2016-02-27T07:20:01.201Z,4756
2016-02-27T07:21:01.282Z,4952
2016-02-27T07:22:01.128Z,5128
2016-02-27T07:23:01.162Z,5440
2016-02-27T07:24:01.197Z,5992
2016-02-27T07:25:01.215Z,6652
2016-02-27T07:26:01.233Z,7112
2016-02-27T07:27:01.282Z,7440
2016-02-27T07:28:01.270Z,7348
2016-02-27T07:29:01.444Z,7272
2016-02-27T07:30:01.353Z,7124
2016-02-27T07:31:01.434Z,7068
2016-02-27T07:32:01.484Z,6272
2016-02-27T07:33:01.252Z,5416
2016-02-27T07:34:01.458Z,5048
2016-02-27T07:35:01.398Z,4876
2016-02-27T07:36:01.416Z,4824
2016-02-27T07:37:01.497Z,4784
2016-02-27T07:38:01.389Z,4776
2016-02-27T07:39:01.408Z,4780
2016-02-27T07:40:01.537Z,4812
2016-02-27T07:41:01.508Z,4856
2016-02-27T07:42:01.480Z,4904
2016-02-27T07:43:01.450Z,4964
2016-02-27T07:44:01.500Z,5016
2016-02-27T07:45:01.471Z,5076
2016-02-27T07:46:01.490Z,5160
2016-02-27T07:47:01.493Z,5272
2016-02-27T07:48:01.511Z,5404
2016-02-27T07:49:01.702Z,5464
2016-02-27T07:50:01.516Z,5524
2016-02-27T07:51:01.660Z,5556
2016-02-27T07:52:01.522Z,5596
2016-02-27T07:53:01.696Z,5564
2016-02-27T07:54:01.574Z,5572
2016-02-27T07:55:01.623Z,5572
2016-02-27T07:56:01.595Z,5612
2016-02-27T07:57:01.691Z,5604
2016-02-27T07:58:01.631Z,5584
2016-02-27T07:59:01.650Z,5528
2016-02-27T08:00:07.934Z,5496
2016-02-27T08:01:01.687Z,5480
2016-02-27T08:02:01.845Z,5476
2016-02-27T08:03:01.551Z,5476
2016-02-27T08:04:01.710Z,5488
2016-02-27T08:05:01.713Z,5520
2016-02-27T08:06:01.934Z,5572
2016-02-27T08:07:01.812Z,5600
2016-02-27T08:08:01.784Z,5652
2016-02-27T08:09:01.770Z,5688
2016-02-27T08:10:01.867Z,5688
2016-02-27T08:11:01.822Z,5656
2016-02-27T08:12:01.856Z,5636
2016-02-27T08:13:01.844Z,5628
2016-02-27T08:14:03.252Z,5620
2016-02-27T08:15:01.880Z,5596
2016-02-27T08:16:01.867Z,5572
2016-02-27T08:17:01.886Z,5548
2016-02-27T08:18:01.919Z,5508
2016-02-27T08:19:01.938Z,5488
2016-02-27T08:20:08.207Z,5488
2016-02-27T08:21:02.038Z,5480
2016-02-27T08:22:01.963Z,5476
2016-02-27T08:23:01.949Z,5488
2016-02-27T08:24:01.998Z,5500
2016-02-27T08:25:01.986Z,5504
2016-02-27T08:26:01.863Z,5528
2016-02-27T08:27:02.022Z,5548
2016-02-27T08:28:02.103Z,5548
2016-02-27T08:29:02.074Z,5552
2016-02-27T08:30:02.201Z,5540
2016-02-27T08:31:02.080Z,5552
2016-02-27T08:32:02.129Z,5544
2016-02-27T08:33:02.101Z,5544
2016-02-27T08:34:02.119Z,5544
2016-02-27T08:35:02.137Z,5544
2016-02-27T08:36:02.234Z,5548
2016-02-27T08:37:02.174Z,5556
2016-02-27T08:38:02.209Z,5560
2016-02-27T08:39:02.211Z,5552
2016-02-27T08:40:02.214Z,5580
2016-02-27T08:41:02.232Z,5600
2016-02-27T08:42:02.219Z,5624
2016-02-27T08:43:02.487Z,5640
2016-02-27T08:44:02.287Z,5628
2016-02-27T08:45:02.305Z,5628
2016-02-27T08:46:02.886Z,5648
2016-02-27T08:47:02.294Z,5684
2016-02-27T08:48:02.313Z,5744
2016-02-27T08:49:02.487Z,5812
2016-02-27T08:50:02.350Z,5860
2016-02-27T08:51:08.633Z,5900
2016-02-27T08:52:02.355Z,5952
2016-02-27T08:53:02.374Z,6028
2016-02-27T08:54:15.141Z,6020
2016-02-27T08:55:02.441Z,6036
2016-02-27T08:56:02.647Z,6104
2016-02-27T08:57:02.431Z,6176
2016-02-27T08:58:02.465Z,6252
2016-02-27T08:59:02.451Z,6376
2016-02-27T09:00:15.235Z,6560
2016-02-27T09:01:02.488Z,6668
2016-02-27T09:02:02.585Z,6824
2016-02-27T09:03:02.541Z,6944
2016-02-27T09:04:02.621Z,7040
2016-02-27T09:05:02.546Z,7148
2016-02-27T09:06:08.892Z,7280
2016-02-27T09:07:02.598Z,7376
2016-02-27T09:08:02.648Z,7484
2016-02-27T09:09:15.338Z,7568
2016-02-27T09:10:02.606Z,7632
2016-02-27T09:11:21.875Z,7740
2016-02-27T09:12:02.643Z,7792
2016-02-27T09:13:28.334Z,7904
2016-02-27T09:14:21.367Z,7952
2016-02-27T09:15:33.995Z,8028
2016-02-27T09:16:02.701Z,8040
2016-02-27T09:17:02.735Z,8096
2016-02-27T09:18:02.691Z,8164
2016-02-27T09:19:02.880Z,8216
2016-02-27T09:20:02.758Z,8280
2016-02-27T09:21:02.808Z,8340
2016-02-27T09:22:03.013Z,8364
2016-02-27T09:23:02.860Z,8392
2016-02-27T09:24:03.050Z,8432
2016-02-27T09:25:02.881Z,8476
2016-02-27T09:26:02.853Z,8528
2016-02-27T09:27:02.902Z,8612
2016-02-27T09:28:02.904Z,8668
2016-02-27T09:29:02.939Z,8720
2016-02-27T09:30:03.113Z,8792
2016-02-27T09:31:09.319Z,8896
2016-02-27T09:32:09.196Z,8980
2016-02-27T09:33:02.981Z,9040
2016-02-27T09:34:03.108Z,9108
2016-02-27T09:35:03.017Z,9160
2016-02-27T09:36:03.004Z,9204
2016-02-27T09:37:03.023Z,9244
2016-02-27T09:38:03.088Z,9288
2016-02-27T09:39:03.044Z,9320
2016-02-27T09:40:03.062Z,9344
2016-02-27T09:41:03.378Z,9364
2016-02-27T09:42:03.083Z,9404
2016-02-27T09:43:03.289Z,9428
2016-02-27T09:44:03.136Z,9464
2016-02-27T09:45:03.154Z,9488
2016-02-27T09:46:09.422Z,9488
2016-02-27T09:47:03.472Z,9492
2016-02-27T09:48:03.177Z,9484
2016-02-27T09:49:03.492Z,9452
2016-02-27T09:50:03.230Z,9416
2016-02-27T09:51:03.232Z,9384
2016-02-27T09:52:03.266Z,9320
2016-02-27T09:53:03.268Z,9260
2016-02-27T09:54:03.506Z,9200
2016-02-27T09:55:03.306Z,9120
2016-02-27T09:56:03.324Z,9024
2016-02-27T09:57:03.358Z,8924
2016-02-27T09:58:03.424Z,8800
2016-02-27T09:59:03.426Z,8684
2016-02-27T10:00:03.429Z,8580
2016-02-27T10:01:03.384Z,8452
2016-02-27T10:02:03.512Z,8352
2016-02-27T10:03:03.421Z,8248
2016-02-27T10:04:03.470Z,8144
2016-02-27T10:05:03.536Z,8052
2016-02-27T10:06:03.726Z,7952
2016-02-27T10:07:03.572Z,7876
2016-02-27T10:08:03.966Z,7800
2016-02-27T10:09:03.515Z,7748
2016-02-27T10:10:03.503Z,7696
2016-02-27T10:11:03.630Z,7652
2016-02-27T10:12:03.601Z,7616
2016-02-27T10:13:03.651Z,7576
2016-02-27T10:14:03.638Z,7532
2016-02-27T10:15:03.594Z,7492
2016-02-27T10:16:03.659Z,7468
2016-02-27T10:17:03.678Z,7456
2016-02-27T10:18:04.070Z,7440
2016-02-27T10:19:10.042Z,7436
2016-02-27T10:20:03.951Z,7440
2016-02-27T10:21:03.750Z,7460
2016-02-27T10:22:03.785Z,7472
2016-02-27T10:23:03.771Z,7496
2016-02-27T10:24:03.805Z,7492
2016-02-27T10:25:16.808Z,7408
2016-02-27T10:26:03.811Z,7436
2016-02-27T10:27:03.844Z,7444
2016-02-27T10:28:04.238Z,7464
2016-02-27T10:29:03.882Z,7476
2016-02-27T10:30:03.946Z,7484
2016-02-27T10:31:03.949Z,7488
2016-02-27T10:32:04.187Z,7500
2016-02-27T10:33:03.939Z,7540
2016-02-27T10:34:03.988Z,7592
2016-02-27T10:35:10.507Z,7632
2016-02-27T10:36:04.165Z,7632
2016-02-27T10:37:04.059Z,7624
2016-02-27T10:38:04.093Z,7588
2016-02-27T10:39:04.017Z,7548
2016-02-27T10:40:04.083Z,7504
2016-02-27T10:41:04.117Z,7492
2016-02-27T10:42:04.104Z,7484
2016-02-27T10:43:04.200Z,7476
2016-02-27T10:44:04.140Z,7472
2016-02-27T10:45:04.190Z,7460
2016-02-27T10:46:04.270Z,7444
2016-02-27T10:47:04.164Z,7448
2016-02-27T10:48:04.183Z,7456
2016-02-27T10:49:04.404Z,7452
2016-02-27T10:50:04.469Z,7444
2016-02-27T10:51:04.394Z,7460
2016-02-27T10:52:04.380Z,7444
2016-02-27T10:53:04.289Z,7444
2016-02-27T10:54:04.324Z,7456
2016-02-27T10:55:04.311Z,7456
2016-02-27T10:56:04.314Z,7452
2016-02-27T10:57:04.394Z,7444
2016-02-27T10:58:04.366Z,7444
2016-02-27T10:59:04.400Z,7456
2016-02-27T11:00:04.402Z,7444
2016-02-27T11:01:04.405Z,7440
2016-02-27T11:02:04.454Z,7424
2016-02-27T11:03:04.426Z,7432
2016-02-27T11:04:04.491Z,7408
2016-02-27T11:05:04.634Z,7432
2016-02-27T11:06:04.668Z,7456
2016-02-27T11:07:04.656Z,7480
2016-02-27T11:08:04.484Z,7516
2016-02-27T11:09:04.534Z,7548
2016-02-27T11:10:04.520Z,7552
2016-02-27T11:11:04.835Z,7564
2016-02-27T11:12:04.556Z,7576
2016-02-27T11:13:04.669Z,7576
2016-02-27T11:14:04.843Z,7576
2016-02-27T11:15:04.846Z,7556
2016-02-27T11:16:04.864Z,7528
2016-02-27T11:17:04.648Z,7512
2016-02-27T11:18:04.714Z,7492
2016-02-27T11:19:04.794Z,7472
2016-02-27T11:20:04.953Z,7444
2016-02-27T11:21:04.737Z,7416
2016-02-27T11:22:05.319Z,7400
2016-02-27T11:23:05.228Z,7392
2016-02-27T11:24:04.855Z,7388
2016-02-27T11:25:17.501Z,7376
2016-02-27T11:26:04.830Z,7364
2016-02-27T11:27:04.894Z,7336
2016-02-27T11:28:05.085Z,7308
2016-02-27T11:29:05.118Z,7288
2016-02-27T11:30:04.872Z,7272
2016-02-27T11:31:17.939Z,7244
2016-02-27T11:32:04.955Z,7232
2016-02-27T11:33:24.553Z,7216
2016-02-27T11:34:05.271Z,7196
2016-02-27T11:35:05.306Z,7172
2016-02-27T11:36:05.231Z,7152
2016-02-27T11:37:05.046Z,7124
2016-02-27T11:38:05.315Z,7096
2016-02-27T11:39:05.255Z,7076
2016-02-27T11:40:05.492Z,7048
2016-02-27T11:41:05.057Z,7020
2016-02-27T11:42:23.828Z,6996
2016-02-27T11:43:05.171Z,6972
2016-02-27T11:44:05.284Z,6936
2016-02-27T11:45:04.630Z,6900
2016-02-27T11:46:11.526Z,6872
2016-02-27T11:47:05.386Z,6856
2016-02-27T11:48:05.326Z,6828
2016-02-27T11:49:05.594Z,6800
2016-02-27T11:50:05.925Z,6772
2016-02-27T11:51:05.224Z,6756
2016-02-27T11:52:05.242Z,6740
2016-02-27T11:53:05.558Z,6716
2016-02-27T11:54:05.326Z,6708
2016-02-27T11:55:05.376Z,6708
2016-02-27T11:56:06.363Z,6716
2016-02-27T11:57:05.381Z,6720
2016-02-27T11:58:05.586Z,6732
2016-02-27T11:59:05.386Z,6740
2016-02-27T12:00:05.389Z,6744
2016-02-27T12:01:05.938Z,6752
2016-02-27T12:02:05.442Z,6764
2016-02-27T12:03:05.507Z,6776
2016-02-27T12:04:05.791Z,6788
2016-02-27T12:05:05.824Z,6816
2016-02-27T12:06:06.155Z,6848
2016-02-27T12:07:05.799Z,6868
2016-02-27T12:08:06.113Z,6892
2016-02-27T12:09:18.619Z,6932
2016-02-27T12:10:06.166Z,6976
2016-02-27T12:11:09.109Z,7032
2016-02-27T12:12:06.968Z,7064
2016-02-27T12:13:05.674Z,7112
2016-02-27T12:14:05.958Z,7160
2016-02-27T12:15:05.679Z,7188
2016-02-27T12:16:05.651Z,7232
2016-02-27T12:17:05.731Z,7256
2016-02-27T12:18:05.657Z,7272
2016-02-27T12:19:05.831Z,7284
2016-02-27T12:20:06.053Z,7300
2016-02-27T12:21:05.977Z,7324
2016-02-27T12:22:05.761Z,7360
2016-02-27T12:23:05.858Z,7404
2016-02-27T12:24:19.503Z,7492
2016-02-27T12:25:06.284Z,7552
2016-02-27T12:26:05.834Z,7620
2016-02-27T12:27:05.853Z,7676
2016-02-27T12:28:05.902Z,7720
2016-02-27T12:29:06.202Z,7820
2016-02-27T12:30:06.111Z,7844
2016-02-27T12:31:06.363Z,7840
2016-02-27T12:32:05.913Z,7764
2016-02-27T12:33:05.978Z,7688
2016-02-27T12:34:06.059Z,7696
2016-02-27T12:35:06.218Z,7732
2016-02-27T12:36:06.596Z,7772
2016-02-27T12:37:06.286Z,7828
2016-02-27T12:38:06.241Z,7932
2016-02-27T12:39:06.057Z,8108
2016-02-27T12:40:06.044Z,8340
2016-02-27T12:41:06.327Z,8492
2016-02-27T12:42:12.615Z,8332
2016-02-27T12:43:12.367Z,8112
2016-02-27T12:44:06.101Z,7828
2016-02-27T12:45:19.123Z,7320
2016-02-27T12:46:06.357Z,7236
2016-02-27T12:47:06.422Z,7256
2016-02-27T12:48:06.456Z,7420
2016-02-27T12:49:06.349Z,7708
2016-02-27T12:50:06.680Z,8200
2016-02-27T12:51:06.323Z,8412
2016-02-27T12:52:06.311Z,8264
2016-02-27T12:53:32.472Z,7980
2016-02-27T12:54:10.412Z,7788
2016-02-27T12:55:06.662Z,7920
2016-02-27T12:56:06.477Z,7856
2016-02-27T12:57:06.855Z,7768
2016-02-27T12:58:07.295Z,7760
2016-02-27T12:59:06.470Z,7532
2016-02-27T13:00:19.272Z,7372
2016-02-27T13:01:13.088Z,7124
2016-02-27T13:02:06.666Z,7024
2016-02-27T13:03:06.715Z,6968
2016-02-27T13:04:06.530Z,7236
2016-02-27T13:05:06.751Z,7608
2016-02-27T13:06:25.741Z,8256
2016-02-27T13:07:19.229Z,8268
2016-02-27T13:08:32.403Z,8280
2016-02-27T13:09:26.015Z,8352
2016-02-27T13:10:06.905Z,8268
2016-02-27T13:11:06.627Z,8276
2016-02-27T13:12:07.223Z,8328
2016-02-27T13:13:06.726Z,8380
2016-02-27T13:14:06.620Z,8520
2016-02-27T13:15:06.701Z,7996
2016-02-27T13:16:07.376Z,7452
2016-02-27T13:17:07.018Z,7452
2016-02-27T13:18:19.679Z,7248
2016-02-27T13:19:06.851Z,6972
2016-02-27T13:20:06.979Z,6620
2016-02-27T13:21:06.826Z,6720
2016-02-27T13:22:06.767Z,6928
2016-02-27T13:23:07.050Z,7192
2016-02-27T13:24:07.115Z,7556
2016-02-27T13:25:07.103Z,7644
2016-02-27T13:26:07.339Z,7608
2016-02-27T13:27:06.858Z,7716
2016-02-27T13:28:06.908Z,7752
2016-02-27T13:29:07.426Z,8088
2016-02-27T13:30:07.069Z,8420
2016-02-27T13:31:07.197Z,8428
2016-02-27T13:32:06.996Z,8328
2016-02-27T13:33:07.514Z,8108
2016-02-27T13:34:07.157Z,7748
2016-02-27T13:35:07.051Z,8092
2016-02-27T13:36:08.192Z,7868
2016-02-27T13:37:07.353Z,7668
2016-02-27T13:38:07.091Z,7452
2016-02-27T13:39:07.564Z,7372
2016-02-27T13:40:07.303Z,7008
2016-02-27T13:41:13.807Z,6832
2016-02-27T13:42:07.104Z,6724
2016-02-27T13:43:07.555Z,6664
2016-02-27T13:44:07.631Z,6780
2016-02-27T13:45:06.753Z,6940
2016-02-27T13:46:20.737Z,7080
2016-02-27T13:47:13.707Z,6688
2016-02-27T13:48:08.348Z,6512
2016-02-27T13:49:07.160Z,6860
2016-02-27T13:50:07.661Z,7200
2016-02-27T13:51:07.319Z,7704
2016-02-27T13:52:07.883Z,7324
2016-02-27T13:53:07.556Z,7264
2016-02-27T13:54:07.480Z,7528
2016-02-27T13:55:20.016Z,7568
2016-02-27T13:56:07.594Z,7736
2016-02-27T13:58:16.993Z,6584
2016-02-27T13:59:17.057Z,6252
2016-02-27T14:00:17.185Z,6260
2016-02-27T14:01:17.016Z,6348
2016-02-27T14:02:16.426Z,6464
2016-02-27T14:03:17.084Z,6600
2016-02-27T14:04:17.821Z,6760
2016-02-27T14:05:17.370Z,6804
2016-02-27T14:06:17.108Z,6696
2016-02-27T14:07:17.126Z,6536
2016-02-27T14:08:17.160Z,6504
2016-02-27T14:09:17.866Z,6460
2016-02-27T14:10:17.430Z,6332
2016-02-27T14:11:17.247Z,6100
2016-02-27T14:12:17.249Z,5936
2016-02-27T14:13:17.470Z,5888
2016-02-27T14:14:17.222Z,5872
2016-02-27T14:15:17.569Z,5876
2016-02-27T14:16:17.603Z,5880
2016-02-27T14:17:17.638Z,5904
2016-02-27T14:18:17.452Z,5960
2016-02-27T14:19:17.455Z,6020
2016-02-27T14:20:17.332Z,6064
2016-02-27T14:21:17.460Z,6148
2016-02-27T14:22:17.510Z,6260
2016-02-27T14:23:17.793Z,6484
2016-02-27T14:24:17.562Z,6688
2016-02-27T14:25:17.502Z,6820
2016-02-27T14:26:17.489Z,6808
2016-02-27T14:27:17.695Z,6720
2016-02-27T14:28:17.808Z,6732
2016-02-27T14:29:17.625Z,6768
2016-02-27T14:30:17.784Z,6828
2016-02-27T14:31:17.728Z,6792
2016-02-27T14:32:17.824Z,6440
2016-02-27T14:33:18.187Z,6176
2016-02-27T14:34:17.532Z,6064
2016-02-27T14:35:17.863Z,6052
2016-02-27T14:36:17.835Z,6060
2016-02-27T14:37:17.901Z,6152